Flight NumberIRM077 Date07.06.2018
Departure AirportOIIE Arrival AirportZSPD
Departure Time19.02Arrival Time2.56
Pilot In CommandSaeed TabaTabaei Block Time7.90 Hours
Pilot Rating100 % AircraftEP-MNF [ A310-300ET ]


Distance3,483.00 Nm. Passengers202
Fuel Used35,770 Kg. Cargo16689 Kg
Expense Details Income Details
Fuel Cost28,719 v$Ticket Sales121,200 v$
Pilot Salary15,472 v$ Cargo income36,985.00 v$
Crew Salary1,010 v$ Bonus25,787 v$
Gross Profit139,252 v$ ( 1,392,520 v$ )

Client Versionv2.2.0.rc3 Max Simrate1
Flight Critique Pilot CommentsZSPD 070100Z 12004MPS 9999 BKN016 24/19 Q1012 NOSIG// SAS11A ILS RWY 17L

[ Back ]
FSA VA Integration Pack
Copyright © 2010 FSAirlines.net. Version : 0.1.1